createdAt,value
2022-10-02T00:02:37.576Z,98280.38
2022-10-02T00:05:32.753Z,98285.75
2022-10-02T00:08:38.512Z,98299.98
2022-10-02T00:11:17.506Z,98303.45
2022-10-02T00:13:56.737Z,98312.11
2022-10-02T00:16:29.494Z,98309.16
2022-10-02T00:18:58.112Z,98309.70
2022-10-02T00:21:45.914Z,98315.08
2022-10-02T00:24:21.133Z,98317.50
2022-10-02T00:27:28.210Z,98321.67
2022-10-02T00:30:00.293Z,98328.26
2022-10-02T00:32:37.335Z,98330.00
2022-10-02T00:35:37.755Z,98334.16
2022-10-02T00:38:44.318Z,98341.11
2022-10-02T00:41:31.415Z,98343.01
2022-10-02T00:44:21.919Z,98337.29
2022-10-02T00:47:04.647Z,98344.93
2022-10-02T00:49:54.987Z,98342.84
2022-10-02T00:53:00.873Z,98348.05
2022-10-02T00:55:42.827Z,98354.29
2022-10-02T00:58:26.072Z,98360.53
2022-10-02T01:01:10.981Z,98365.20
2022-10-02T01:03:56.747Z,98365.70
2022-10-02T01:06:29.000Z,98378.71
2022-10-02T01:08:58.276Z,98375.04
2022-10-02T01:11:40.609Z,98380.77
2022-10-02T01:14:10.308Z,98376.80
2022-10-02T01:16:42.453Z,98378.52
2022-10-02T01:19:26.384Z,98377.31
2022-10-02T01:22:05.376Z,98388.08
2022-10-02T01:24:48.595Z,98390.32
2022-10-02T01:27:18.087Z,98387.89
2022-10-02T01:29:52.657Z,98391.16
2022-10-02T01:32:26.614Z,98400.02
2022-10-02T01:34:56.915Z,98394.83
2022-10-02T01:37:31.146Z,98396.21
2022-10-02T01:40:07.139Z,98397.43
2022-10-02T01:42:37.260Z,98402.79
2022-10-02T01:45:09.368Z,98409.05
2022-10-02T01:47:49.096Z,98409.40
2022-10-02T01:50:32.046Z,98416.34
2022-10-02T01:53:12.710Z,98414.42
2022-10-02T01:56:01.566Z,98414.24
2022-10-02T01:58:48.797Z,98420.32
2022-10-02T02:01:27.488Z,98424.30
2022-10-02T02:04:13.818Z,98430.58
2022-10-02T02:06:54.526Z,98430.58
2022-10-02T02:09:38.566Z,98435.09
2022-10-02T02:12:15.008Z,98433.20
2022-10-02T02:14:52.128Z,98443.09
2022-10-02T02:17:26.929Z,98444.31
2022-10-02T02:20:14.177Z,98448.83
2022-10-02T02:22:47.776Z,98458.20
2022-10-02T02:25:30.632Z,98453.52
2022-10-02T02:28:04.429Z,98459.27
2022-10-02T02:30:37.079Z,98454.23
2022-10-02T02:33:11.785Z,98460.64
2022-10-02T02:35:55.374Z,98461.49
2022-10-02T02:38:30.159Z,98465.14
2022-10-02T02:41:05.279Z,98463.23
2022-10-02T02:43:41.104Z,98475.71
2022-10-02T02:46:28.362Z,98468.25
2022-10-02T02:49:09.860Z,98471.38
2022-10-02T02:51:42.936Z,98471.89
2022-10-02T02:54:24.598Z,98479.36
2022-10-02T02:56:55.416Z,98477.61
2022-10-02T02:59:28.730Z,98481.97
2022-10-02T03:02:04.338Z,98482.14
2022-10-02T03:04:32.872Z,98486.65
2022-10-02T03:07:05.865Z,98487.19
2022-10-02T03:09:34.947Z,98488.75
2022-10-02T03:12:20.520Z,98485.98
2022-10-02T03:14:56.046Z,98495.70
2022-10-02T03:18:02.836Z,98493.80
2022-10-02T03:20:48.822Z,98504.08
2022-10-02T03:23:45.977Z,98503.04
2022-10-02T03:26:20.086Z,98507.36
2022-10-02T03:28:59.061Z,98505.13
2022-10-02T03:31:31.069Z,98504.08
2022-10-02T03:34:02.777Z,98506.86
2022-10-02T03:36:32.171Z,98509.10
2022-10-02T03:39:25.184Z,98518.83
2022-10-02T03:41:54.773Z,98514.32
2022-10-02T03:44:23.771Z,98516.76
2022-10-02T03:46:52.598Z,98513.80
2022-10-02T03:49:29.408Z,98513.63
2022-10-02T03:51:58.564Z,98511.55
2022-10-02T03:54:34.724Z,98513.98
2022-10-02T03:57:07.673Z,98516.56
2022-10-02T03:59:45.758Z,98516.41
2022-10-02T04:02:23.887Z,98514.48
2022-10-02T04:05:05.151Z,98521.42
2022-10-02T04:07:39.424Z,98522.47
2022-10-02T04:10:11.555Z,98526.11
2022-10-02T04:12:47.875Z,98528.19
2022-10-02T04:15:31.502Z,98535.31
2022-10-02T04:18:10.918Z,98534.95
2022-10-02T04:20:52.831Z,98531.48
2022-10-02T04:23:32.473Z,98529.56
2022-10-02T04:26:07.979Z,98535.83
2022-10-02T04:28:48.458Z,98541.55
2022-10-02T04:31:17.856Z,98540.16
2022-10-02T04:33:52.476Z,98549.19
2022-10-02T04:36:39.995Z,98550.39
2022-10-02T04:39:31.700Z,98546.07
2022-10-02T04:42:17.035Z,98551.79
2022-10-02T04:45:26.917Z,98547.63
2022-10-02T04:48:34.241Z,98548.31
2022-10-02T04:51:12.818Z,98547.79
2022-10-02T04:54:05.561Z,98550.21
2022-10-02T04:57:02.081Z,98560.62
2022-10-02T04:59:36.122Z,98554.72
2022-10-02T05:02:26.456Z,98554.70
2022-10-02T05:05:22.856Z,98555.91
2022-10-02T05:08:18.958Z,98555.59
2022-10-02T05:11:31.626Z,98555.25
2022-10-02T05:14:11.386Z,98548.33
2022-10-02T05:17:04.158Z,98547.10
2022-10-02T05:20:24.833Z,98545.55
2022-10-02T05:23:01.565Z,98548.69
2022-10-02T05:25:59.669Z,98549.02
2022-10-02T05:28:54.045Z,98552.52
2022-10-02T05:31:53.061Z,98553.73
2022-10-02T05:34:46.030Z,98556.67
2022-10-02T05:37:27.696Z,98557.89
2022-10-02T05:40:25.684Z,98560.16
2022-10-02T05:43:33.032Z,98559.63
2022-10-02T05:46:21.977Z,98563.79
2022-10-02T05:49:03.364Z,98565.70
2022-10-02T05:51:55.922Z,98567.06
2022-10-02T05:54:36.430Z,98559.78
2022-10-02T05:57:17.341Z,98560.81
2022-10-02T06:00:02.917Z,98562.70
2022-10-02T06:03:06.343Z,98561.52
2022-10-02T06:05:47.990Z,98563.21
2022-10-02T06:08:22.385Z,98565.34
2022-10-02T06:11:01.362Z,98571.73
2022-10-02T06:13:38.155Z,98567.88
2022-10-02T06:16:33.038Z,98572.47
2022-10-02T06:19:18.618Z,98584.47
2022-10-02T06:21:59.954Z,98588.26
2022-10-02T06:24:33.699Z,98589.39
2022-10-02T06:27:13.545Z,98596.88
2022-10-02T06:29:51.569Z,98600.67
2022-10-02T06:32:37.501Z,98607.39
2022-10-02T06:35:16.016Z,98608.02
2022-10-02T06:37:56.964Z,98617.84
2022-10-02T06:40:44.061Z,98613.98
2022-10-02T06:43:37.113Z,98620.09
2022-10-02T06:46:23.436Z,98624.79
2022-10-02T06:49:00.260Z,98628.41
2022-10-02T06:51:44.688Z,98623.86
2022-10-02T06:54:23.898Z,98610.45
2022-10-02T06:57:04.261Z,98611.45
2022-10-02T06:59:46.495Z,98622.99
2022-10-02T07:02:39.352Z,98612.91
2022-10-02T07:05:16.706Z,98614.95
2022-10-02T07:08:05.156Z,98613.25
2022-10-02T07:10:40.345Z,98619.14
2022-10-02T07:13:36.072Z,98626.25
2022-10-02T07:16:42.870Z,98619.93
2022-10-02T07:19:47.847Z,98619.27
2022-10-02T07:22:50.653Z,98616.64
2022-10-02T07:25:31.813Z,98618.38
2022-10-02T07:28:25.482Z,98619.52
2022-10-02T07:31:08.673Z,98618.18
2022-10-02T07:33:43.176Z,98618.17
2022-10-02T07:36:33.650Z,98617.92
2022-10-02T07:39:03.100Z,98615.09
2022-10-02T07:42:01.061Z,98614.48
2022-10-02T07:45:01.592Z,98617.13
2022-10-02T07:47:46.628Z,98620.14
2022-10-02T07:50:45.720Z,98623.61
2022-10-02T07:53:24.633Z,98621.29
2022-10-02T07:55:56.415Z,98622.63
2022-10-02T07:58:51.538Z,98628.92
2022-10-02T08:01:33.603Z,98622.92
2022-10-02T08:04:07.532Z,98617.92
2022-10-02T08:06:37.415Z,98611.48
2022-10-02T08:09:21.378Z,98607.35
2022-10-02T08:12:13.301Z,98609.90
2022-10-02T08:14:45.869Z,98599.02
2022-10-02T08:17:40.017Z,98600.23
2022-10-02T08:20:29.467Z,98595.49
2022-10-02T08:23:07.433Z,98594.28
2022-10-02T08:26:11.323Z,98603.98
2022-10-02T08:29:08.931Z,98603.20
2022-10-02T08:31:38.345Z,98603.36
2022-10-02T08:34:18.179Z,98596.08
2022-10-02T08:37:05.831Z,98598.21
2022-10-02T08:40:25.753Z,98589.48
2022-10-02T08:43:00.431Z,98586.85
2022-10-02T08:45:56.843Z,98585.39
2022-10-02T08:48:39.982Z,98579.11
2022-10-02T08:51:40.201Z,98585.98
2022-10-02T08:54:43.414Z,98589.72
2022-10-02T08:57:55.532Z,98594.58
2022-10-02T09:00:56.695Z,98590.34
2022-10-02T09:03:38.136Z,98594.16
2022-10-02T09:06:21.849Z,98593.45
2022-10-02T09:09:11.007Z,98584.77
2022-10-02T09:12:02.233Z,98584.67
2022-10-02T09:14:54.579Z,98585.92
2022-10-02T09:17:47.533Z,98583.46
2022-10-02T09:20:35.271Z,98587.27
2022-10-02T09:23:42.518Z,98588.05
2022-10-02T09:26:13.981Z,98583.02
2022-10-02T09:29:09.774Z,98587.87
2022-10-02T09:32:16.173Z,98583.48
2022-10-02T09:35:03.243Z,98578.26
2022-10-02T09:37:59.785Z,98571.27
2022-10-02T09:40:49.357Z,98573.45
2022-10-02T09:43:44.382Z,98573.71
2022-10-02T09:46:36.423Z,98572.56
2022-10-02T09:49:17.216Z,98569.82
2022-10-02T09:52:00.819Z,98568.35
2022-10-02T09:54:50.257Z,98570.47
2022-10-02T09:57:32.353Z,98568.81
2022-10-02T10:00:18.883Z,98569.55
2022-10-02T10:03:23.468Z,98577.66
2022-10-02T10:06:16.279Z,98572.31
2022-10-02T10:09:20.036Z,98572.31
2022-10-02T10:12:15.827Z,98558.70
2022-10-02T10:15:05.264Z,98554.27
2022-10-02T10:18:14.924Z,98553.36
2022-10-02T10:21:21.042Z,98553.12
2022-10-02T10:24:00.977Z,98547.77
2022-10-02T10:26:39.309Z,98545.68
2022-10-02T10:29:24.606Z,98544.32
2022-10-02T10:32:05.693Z,98545.00
2022-10-02T10:34:56.300Z,98541.76
2022-10-02T10:38:02.305Z,98544.04
2022-10-02T10:41:15.837Z,98542.27
2022-10-02T10:44:22.906Z,98544.27
2022-10-02T10:47:27.872Z,98535.91
2022-10-02T10:50:21.998Z,98531.73
2022-10-02T10:53:31.888Z,98527.38
2022-10-02T10:56:37.902Z,98520.40
2022-10-02T10:59:25.473Z,98510.99
2022-10-02T11:02:14.830Z,98505.54
2022-10-02T11:05:11.305Z,98508.13
2022-10-02T11:07:59.139Z,98502.05
2022-10-02T11:10:40.343Z,98500.58
2022-10-02T11:13:44.723Z,98513.96
2022-10-02T11:16:55.469Z,98511.50
2022-10-02T11:19:36.973Z,98508.81
2022-10-02T11:22:20.584Z,98501.95
2022-10-02T11:24:57.203Z,98498.10
2022-10-02T11:28:22.613Z,98498.67
2022-10-02T11:31:17.853Z,98495.91
2022-10-02T11:34:01.938Z,98495.01
2022-10-02T11:36:58.018Z,98481.66
2022-10-02T11:39:53.112Z,98476.05
2022-10-02T11:42:42.639Z,98478.84
2022-10-02T11:45:33.341Z,98477.01
2022-10-02T11:48:33.732Z,98477.27
2022-10-02T11:51:31.233Z,98471.89
2022-10-02T11:54:16.692Z,98468.54
2022-10-02T11:57:02.059Z,98467.34
2022-10-02T11:59:48.995Z,98470.63
2022-10-02T12:02:23.605Z,98476.13
2022-10-02T12:05:10.922Z,98479.17
2022-10-02T12:07:44.552Z,98488.03
2022-10-02T12:10:40.543Z,98486.80
2022-10-02T12:13:21.385Z,98476.27
2022-10-02T12:16:08.890Z,98469.06
2022-10-02T12:19:05.892Z,98472.30
2022-10-02T12:22:16.276Z,98470.81
2022-10-02T12:25:09.211Z,98489.70
2022-10-02T12:28:07.471Z,98518.03
2022-10-02T12:31:01.601Z,98518.87
2022-10-02T12:33:56.410Z,98514.02
2022-10-02T12:36:47.124Z,98509.45
2022-10-02T12:39:37.717Z,98494.33
2022-10-02T12:42:12.366Z,98491.71
2022-10-02T12:44:54.063Z,98486.21
2022-10-02T12:47:29.418Z,98480.20
2022-10-02T12:50:22.427Z,98474.27
2022-10-02T12:53:30.006Z,98491.34
2022-10-02T12:56:28.448Z,98492.66
2022-10-02T12:59:20.385Z,98497.14
2022-10-02T13:02:11.350Z,98501.16
2022-10-02T13:05:14.939Z,98497.02
2022-10-02T13:08:10.227Z,98488.31
2022-10-02T13:10:41.898Z,98483.35
2022-10-02T13:13:19.526Z,98466.40
2022-10-02T13:15:57.239Z,98462.83
2022-10-02T13:18:43.958Z,98459.47
2022-10-02T13:21:16.791Z,98457.27
2022-10-02T13:23:45.623Z,98445.83
2022-10-02T13:26:32.778Z,98435.01
2022-10-02T13:29:16.487Z,98425.44
2022-10-02T13:32:23.756Z,98417.75
2022-10-02T13:35:06.246Z,98418.06
2022-10-02T13:37:43.096Z,98405.29
2022-10-02T13:40:29.316Z,98412.63
2022-10-02T13:43:32.203Z,98407.68
2022-10-02T13:46:30.109Z,98399.56
2022-10-02T13:49:21.290Z,98391.45
2022-10-02T13:52:08.174Z,98390.13
2022-10-02T13:54:37.742Z,98385.93
2022-10-02T13:57:27.719Z,98388.02
2022-10-02T14:00:37.725Z,98392.63
2022-10-02T14:03:22.148Z,98396.23
2022-10-02T14:06:25.357Z,98387.91
2022-10-02T14:09:21.975Z,98387.47
2022-10-02T14:12:03.107Z,98389.05
2022-10-02T14:14:56.818Z,98383.46
2022-10-02T14:17:39.081Z,98380.05
2022-10-02T14:20:26.750Z,98388.75
2022-10-02T14:23:07.642Z,98384.99
2022-10-02T14:26:04.541Z,98382.73
2022-10-02T14:28:57.598Z,98381.37
2022-10-02T14:31:38.222Z,98381.06
2022-10-02T14:34:47.176Z,98380.95
2022-10-02T14:37:30.987Z,98384.45
2022-10-02T14:40:06.391Z,98380.55
2022-10-02T14:42:46.989Z,98385.31
2022-10-02T14:45:39.785Z,98374.66
2022-10-02T14:48:14.216Z,98380.08
2022-10-02T14:51:01.069Z,98377.65
2022-10-02T14:53:32.906Z,98381.11
2022-10-02T14:56:32.901Z,98388.58
2022-10-02T14:59:11.028Z,98390.80
2022-10-02T15:01:51.893Z,98415.09
2022-10-02T15:04:48.188Z,98434.10
2022-10-02T15:07:22.311Z,98437.64
2022-10-02T15:10:18.440Z,98447.54
2022-10-02T15:13:08.065Z,98443.67
2022-10-02T15:16:10.898Z,98430.56
2022-10-02T15:18:58.429Z,98426.59
2022-10-02T15:21:32.848Z,98428.32
2022-10-02T15:24:26.450Z,98436.97
2022-10-02T15:27:11.875Z,98430.32
2022-10-02T15:30:06.543Z,98432.48
2022-10-02T15:32:41.208Z,98436.57
2022-10-02T15:35:23.851Z,98441.16
2022-10-02T15:38:22.156Z,98448.34
2022-10-02T15:41:29.977Z,98456.81
2022-10-02T15:43:59.949Z,98485.61
2022-10-02T15:46:52.565Z,98485.21
2022-10-02T15:49:24.779Z,98501.18
2022-10-02T15:51:56.532Z,98505.42
2022-10-02T15:55:10.549Z,98506.87
2022-10-02T15:58:07.678Z,98503.08
2022-10-02T16:01:02.407Z,98489.21
2022-10-02T16:03:40.406Z,98476.02
2022-10-02T16:06:18.232Z,98470.97
2022-10-02T16:08:59.345Z,98465.77
2022-10-02T16:11:36.859Z,98471.83
2022-10-02T16:14:19.321Z,98486.23
2022-10-02T16:17:16.357Z,98492.82
2022-10-02T16:20:14.670Z,98494.91
2022-10-02T16:23:07.965Z,98491.42
2022-10-02T16:25:56.939Z,98496.30
2022-10-02T16:28:47.339Z,98491.11
2022-10-02T16:31:40.290Z,98492.35
2022-10-02T16:34:42.315Z,98502.58
2022-10-02T16:37:36.582Z,98498.91
2022-10-02T16:40:23.445Z,98499.60
2022-10-02T16:43:24.535Z,98494.39
2022-10-02T16:46:00.484Z,98504.12
2022-10-02T16:49:06.601Z,98501.02
2022-10-02T16:51:58.306Z,98499.80
2022-10-02T16:54:58.368Z,98501.73
2022-10-02T16:57:36.127Z,98507.81
2022-10-02T17:00:23.183Z,98515.13
2022-10-02T17:03:02.369Z,98514.09
2022-10-02T17:06:11.787Z,98521.58
2022-10-02T17:09:36.791Z,98514.47
2022-10-02T17:13:15.438Z,98515.52
2022-10-02T17:16:28.026Z,98526.80
2022-10-02T17:19:40.744Z,98518.64
2022-10-02T17:22:50.460Z,98524.90
2022-10-02T17:26:25.616Z,98528.20
2022-10-02T17:29:39.091Z,98526.11
2022-10-02T17:32:48.282Z,98533.41
2022-10-02T17:35:59.399Z,98539.66
2022-10-02T17:39:23.252Z,98536.02
2022-10-02T17:41:58.208Z,98533.76
2022-10-02T17:45:15.506Z,98534.63
2022-10-02T17:47:58.112Z,98538.62
2022-10-02T17:50:43.187Z,98539.48
2022-10-02T17:54:19.987Z,98532.89
2022-10-02T17:57:23.163Z,98537.41
2022-10-02T18:00:17.146Z,98540.52
2022-10-02T18:02:56.261Z,98539.14
2022-10-02T18:06:12.469Z,98537.23
2022-10-02T18:09:02.543Z,98542.45
2022-10-02T18:11:40.239Z,98548.69
2022-10-02T18:14:35.373Z,98549.91
2022-10-02T18:17:48.226Z,98557.02
2022-10-02T18:20:39.561Z,98555.81
2022-10-02T18:23:50.485Z,98554.42
2022-10-02T18:26:41.960Z,98562.40
2022-10-02T18:29:26.515Z,98566.05
2022-10-02T18:32:46.179Z,98567.78
2022-10-02T18:35:28.913Z,98572.13
2022-10-02T18:38:18.614Z,98576.81
2022-10-02T18:41:09.230Z,98576.63
2022-10-02T18:43:47.997Z,98578.38
2022-10-02T18:47:00.762Z,98582.02
2022-10-02T18:49:43.572Z,98588.27
2022-10-02T18:52:48.149Z,98588.27
2022-10-02T18:55:39.248Z,98590.01
2022-10-02T18:58:14.650Z,98600.42
2022-10-02T19:01:08.300Z,98595.21
2022-10-02T19:03:52.577Z,98596.60
2022-10-02T19:06:48.239Z,98599.02
2022-10-02T19:09:23.611Z,98604.23
2022-10-02T19:11:58.403Z,98603.52
2022-10-02T19:14:34.776Z,98604.23
2022-10-02T19:17:11.345Z,98604.58
2022-10-02T19:19:42.769Z,98612.21
2022-10-02T19:22:26.664Z,98609.26
2022-10-02T19:25:07.305Z,98613.59
2022-10-02T19:27:38.060Z,98612.37
2022-10-02T19:30:29.949Z,98617.39
2022-10-02T19:33:07.833Z,98617.22
2022-10-02T19:35:43.952Z,98617.20
2022-10-02T19:39:10.939Z,98621.85
2022-10-02T19:41:44.081Z,98619.77
2022-10-02T19:44:33.367Z,98623.25
2022-10-02T19:47:11.572Z,98625.34
2022-10-02T19:49:42.865Z,98621.67
2022-10-02T19:52:49.000Z,98621.00
2022-10-02T19:55:25.500Z,98621.16
2022-10-02T19:58:00.923Z,98628.10
2022-10-02T20:00:30.615Z,98630.71
2022-10-02T20:03:02.886Z,98628.44
2022-10-02T20:05:35.989Z,98630.02
2022-10-02T20:08:17.210Z,98634.69
2022-10-02T20:11:09.598Z,98637.78
2022-10-02T20:13:45.888Z,98638.12
2022-10-02T20:16:38.846Z,98637.24
2022-10-02T20:19:16.622Z,98645.05
2022-10-02T20:21:50.708Z,98656.17
2022-10-02T20:24:30.824Z,98647.85
2022-10-02T20:27:07.724Z,98649.09
2022-10-02T20:29:47.130Z,98649.45
2022-10-02T20:32:39.500Z,98655.88
2022-10-02T20:35:15.006Z,98656.75
2022-10-02T20:37:49.073Z,98664.56
2022-10-02T20:40:28.148Z,98655.37
2022-10-02T20:43:13.960Z,98660.76
2022-10-02T20:45:49.003Z,98665.80
2022-10-02T20:49:03.553Z,98659.86
2022-10-02T20:51:43.988Z,98666.46
2022-10-02T20:54:23.888Z,98668.18
2022-10-02T20:57:16.458Z,98673.91
2022-10-02T21:00:03.669Z,98676.15
2022-10-02T21:02:48.651Z,98682.06
2022-10-02T21:06:04.542Z,98684.47
2022-10-02T21:09:11.025Z,98692.30
2022-10-02T21:11:56.358Z,98688.46
2022-10-02T21:14:54.767Z,98695.04
2022-10-02T21:17:44.680Z,98689.66
2022-10-02T21:20:50.774Z,98698.70
2022-10-02T21:24:07.582Z,98698.55
2022-10-02T21:26:58.076Z,98700.96
2022-10-02T21:29:37.328Z,98701.64
2022-10-02T21:32:43.636Z,98699.55
2022-10-02T21:35:31.760Z,98699.35
2022-10-02T21:38:44.755Z,98700.91
2022-10-02T21:41:35.170Z,98704.91
2022-10-02T21:44:41.795Z,98702.30
2022-10-02T21:47:26.008Z,98699.54
2022-10-02T21:50:04.116Z,98698.32
2022-10-02T21:52:53.730Z,98695.71
2022-10-02T21:55:46.373Z,98693.45
2022-10-02T21:58:33.639Z,98691.38
2022-10-02T22:01:22.615Z,98689.98
2022-10-02T22:04:32.596Z,98698.99
2022-10-02T22:07:15.914Z,98699.16
2022-10-02T22:10:13.150Z,98702.10
2022-10-02T22:13:11.953Z,98707.30
2022-10-02T22:15:49.933Z,98708.16
2022-10-02T22:18:39.932Z,98714.23
2022-10-02T22:21:09.289Z,98718.42
2022-10-02T22:23:40.252Z,98720.14
2022-10-02T22:26:31.665Z,98721.01
2022-10-02T22:29:17.787Z,98719.27
2022-10-02T22:32:19.527Z,98718.73
2022-10-02T22:35:23.822Z,98718.25
2022-10-02T22:38:06.297Z,98717.25
2022-10-02T22:40:48.637Z,98728.02
2022-10-02T22:43:27.243Z,98719.52
2022-10-02T22:46:03.059Z,98723.01
2022-10-02T22:48:46.173Z,98731.70
2022-10-02T22:51:59.875Z,98727.02
2022-10-02T22:54:35.519Z,98731.05
2022-10-02T22:57:25.785Z,98728.77
2022-10-02T23:00:17.666Z,98735.73
2022-10-02T23:02:50.770Z,98731.20
2022-10-02T23:05:41.749Z,98732.74
2022-10-02T23:08:34.482Z,98725.98
2022-10-02T23:11:24.779Z,98731.35
2022-10-02T23:14:06.324Z,98727.38
2022-10-02T23:17:16.801Z,98730.69
2022-10-02T23:19:49.094Z,98731.21
2022-10-02T23:22:30.115Z,98730.88
2022-10-02T23:25:20.111Z,98738.19
2022-10-02T23:28:07.793Z,98734.39
2022-10-02T23:30:51.343Z,98738.38
2022-10-02T23:33:28.484Z,98732.10
2022-10-02T23:36:13.935Z,98738.69
2022-10-02T23:38:49.854Z,98737.96
2022-10-02T23:41:38.181Z,98732.39
2022-10-02T23:44:33.703Z,98739.52
2022-10-02T23:47:08.460Z,98734.82
2022-10-02T23:49:46.845Z,98732.89
2022-10-02T23:52:46.482Z,98734.96
2022-10-02T23:55:27.281Z,98740.84
2022-10-02T23:58:13.166Z,98740.66
